Česky Dansk Deutsch English Español Suomi Français Magyar Italiano Nederlands norsk Polski Português svenska Türkçe

 

Het Weer

Minsk (Wit Rusland)

19:30, 19 augustus 2016 (GMT)

NWNNE
WE
SWSSE
Home            
Minsk Loshitsa / Minsk International 1 Vilnius Vitebsk Grodno Kaunas Gomel' Brest Velikie Luki Siauliai Intl./Mil. Rivne Riga International Airport Riga Hostomel Kyiv Brjansk Boryspil Kaliningrad/Khrabrovo Airport Palanga Intl. Warszawa-Okecie Tartu/Ulenurme Liepaja International Airport L'Viv

Om een weerknop op uw website of weblog te plaatsen, copieer onderstaande code en plak die in uw pagina. In het eerste vakje staat HTML-code, in het tweede vakje UBB-code.


Add to Google

Details

Visibility:Greater than 10000 m, 10 km, 32800 ft, 6.2 miles
Clouds:CAVOC
Temperature:16°C, 61°F
Dew-point:14°C, 57°F
Atmospheric pressure:1016 hPa, 762.1 mmHg, 30.00 inHg, 1.003 atm
Relative humidity:87.9 %
METAR:UMMS 191930Z 00000MPS CAVOK 16/14 Q1016 R13/CLRD NOSIG

Snelkoppelingen

Actuele weersinformatie van de hele wereld. Voeg locaties toe met het plus (+) symbool. Deze snelkoppelingen kunnen worden toegevoegd aan Google.

Lid van de Technetium groep

website free tracking
StatCounter NetStat W3C Validator

24-11-2020 01:50:49
astro.technetium.be money.technetium.be phote.technetium.be tafeltennistafel.technetium.be www.ligfiets.net